Time;durP1;ratioP1;P1;durP2;ratioP2;P2;SDS_P1;SDS_P2;PMS_P1;PMS_P2;Temp;Humidity;BMP_temperature;BMP_pressure;BME280_temperature;BME280_humidity;BME280_pressure;Samples;Min_cycle;Max_cycle;Signal;HPM_P1;HPM_P2
2022/07/01 00:00:55;;;;;;;13.28;8.25;;;;;;;22.58;58.38;98442.54;1365681;85;21048;-69
2022/07/01 00:02:56;;;;;;;9.65;7.85;;;;;;;22.52;58.47;98438.33;1362526;85;80874;-71
2022/07/01 00:04:57;;;;;;;18.10;8.43;;;;;;;22.45;58.62;98440.30;1364219;85;21406;-71
2022/07/01 00:06:59;;;;;;;15.88;8.15;;;;;;;22.37;58.71;98431.39;1364828;85;21025;-71
2022/07/01 00:08:59;;;;;;;17.57;8.58;;;;;;;22.28;58.85;98432.67;1362586;85;81854;-71
2022/07/01 00:11:00;;;;;;;16.55;8.45;;;;;;;22.25;58.94;98435.69;1363393;85;21081;-71
2022/07/01 00:13:01;;;;;;;11.28;8.20;;;;;;;22.22;59.03;98446.76;1364968;85;21080;-71
2022/07/01 00:15:03;;;;;;;11.03;8.25;;;;;;;22.19;59.10;98440.34;1362486;85;80804;-71
2022/07/01 00:17:05;;;;;;;10.38;8.40;;;;;;;22.16;59.16;98443.36;1363941;85;21067;-71
2022/07/01 00:19:06;;;;;;;18.35;8.60;;;;;;;22.15;59.22;98443.02;1364795;85;21032;-71
2022/07/01 00:21:07;;;;;;;23.90;8.53;;;;;;;22.11;59.25;98440.31;1363492;85;81693;-71
2022/07/01 00:23:08;;;;;;;18.65;7.87;;;;;;;22.08;59.35;98441.98;1362979;85;21029;-71
2022/07/01 00:25:09;;;;;;;16.62;8.28;;;;;;;22.05;59.39;98440.97;1364316;85;21036;-71
2022/07/01 00:27:10;;;;;;;15.48;7.85;;;;;;;22.06;59.47;98441.31;1362910;85;81994;-71
2022/07/01 00:29:11;;;;;;;14.95;8.33;;;;;;;22.06;59.50;98437.29;1363804;85;21127;-71
2022/07/01 00:31:12;;;;;;;17.67;9.00;;;;;;;22.05;59.53;98429.72;1363660;85;21509;-71
2022/07/01 00:33:13;;;;;;;15.53;8.78;;;;;;;22.07;59.58;98435.78;1363414;85;80763;-71
2022/07/01 00:35:14;;;;;;;14.10;8.93;;;;;;;22.07;59.65;98434.44;1364270;85;21103;-69
2022/07/01 00:37:19;;;;;;;22.22;8.30;;;;;;;22.07;59.65;98433.58;1364442;85;21099;-71
2022/07/01 00:39:20;;;;;;;12.23;8.58;;;;;;;22.05;59.73;98431.06;1362818;85;81141;-70
2022/07/01 00:41:22;;;;;;;12.58;8.58;;;;;;;22.05;59.77;98429.72;1363904;85;21551;-70
2022/07/01 00:43:24;;;;;;;14.60;8.28;;;;;;;22.04;59.81;98425.38;1364468;87;21517;-70
2022/07/01 00:45:25;;;;;;;13.85;8.48;;;;;;;22.04;59.87;98417.81;1362851;85;81035;-70
2022/07/01 00:47:26;;;;;;;13.85;9.08;;;;;;;21.97;59.89;98402.02;1335892;87;21092;-70
2022/07/01 00:49:29;;;;;;;13.80;8.63;;;;;;;22.05;59.92;98420.84;1364983;85;21005;-70
2022/07/01 00:51:30;;;;;;;23.10;9.05;;;;;;;22.05;59.95;98417.64;1361626;85;82318;-70
2022/07/01 00:53:32;;;;;;;11.65;8.83;;;;;;;22.04;60.01;98424.52;1364322;85;21175;-70
2022/07/01 00:55:33;;;;;;;9.23;8.15;;;;;;;22.01;60.10;98421.66;1364423;85;21001;-70
2022/07/01 00:57:37;;;;;;;15.90;8.80;;;;;;;21.99;60.15;98422.81;1362143;86;81641;-70
2022/07/01 00:59:39;;;;;;;25.08;9.35;;;;;;;21.97;60.20;98424.83;1362293;85;21029;-70
2022/07/01 01:01:40;;;;;;;11.15;8.88;;;;;;;21.94;60.23;98419.28;1364563;85;21044;-70
2022/07/01 01:03:42;;;;;;;16.12;8.53;;;;;;;21.94;60.28;98420.14;1375916;85;81154;-70
2022/07/01 01:05:43;;;;;;;21.52;9.28;;;;;;;21.95;60.30;98416.94;1377360;85;21524;-71
2022/07/01 01:07:44;;;;;;;13.45;9.13;;;;;;;21.93;60.36;98414.42;1377946;85;21015;-71
2022/07/01 01:09:45;;;;;;;10.58;8.53;;;;;;;21.92;60.36;98411.39;1376644;85;82093;-70
2022/07/01 01:11:46;;;;;;;17.35;8.28;;;;;;;21.92;60.39;98408.70;1377412;85;21115;-70
2022/07/01 01:16:51;;;;;;;13.22;8.85;;;;;;;21.89;60.48;98409.04;1373457;85;21064;-71
2022/07/01 01:18:52;;;;;;;21.30;8.73;;;;;;;21.87;60.56;98410.20;1354029;86;21055;-71
2022/07/01 01:20:54;;;;;;;10.08;8.70;;;;;;;21.84;60.57;98415.37;1376343;85;80795;-72
2022/07/01 01:22:55;;;;;;;12.98;8.78;;;;;;;21.81;60.62;98405.45;1378202;85;21033;-71
2022/07/01 01:24:58;;;;;;;15.98;8.75;;;;;;;21.79;60.65;98409.64;1377717;85;20992;-71
2022/07/01 01:26:59;;;;;;;12.20;9.78;;;;;;;21.76;60.67;98408.63;1376548;85;81387;-71
2022/07/01 01:29:00;;;;;;;13.03;8.35;;;;;;;21.73;60.76;98407.61;1377438;85;21043;-69
2022/07/01 01:31:01;;;;;;;19.35;9.18;;;;;;;21.70;60.85;98405.25;1378447;85;21570;-69
2022/07/01 01:33:02;;;;;;;14.30;8.58;;;;;;;21.69;60.85;98407.08;1376209;85;80965;-71
2022/07/01 01:35:04;;;;;;;19.60;9.15;;;;;;;21.69;60.91;98406.24;1378226;85;21032;-71
2022/07/01 01:37:07;;;;;;;19.23;9.45;;;;;;;21.67;60.93;98404.20;1378743;85;21024;-70
2022/07/01 01:39:12;;;;;;;20.95;10.82;;;;;;;21.67;60.97;98408.23;1376418;85;82237;-71
2022/07/01 01:41:12;;;;;;;13.70;8.73;;;;;;;21.66;61.05;98403.38;1377632;85;21036;-69
2022/07/01 01:43:13;;;;;;;12.47;8.50;;;;;;;21.66;61.10;98403.89;1377055;85;22225;-70
2022/07/01 01:45:14;;;;;;;16.97;8.55;;;;;;;21.64;61.11;98403.19;1376375;85;80903;-70
2022/07/01 01:47:15;;;;;;;16.48;9.10;;;;;;;21.62;61.12;98406.55;1377201;85;21075;-70
2022/07/01 01:49:17;;;;;;;13.45;9.45;;;;;;;21.58;61.21;98416.73;1376706;85;21599;-70
2022/07/01 01:51:19;;;;;;;13.32;8.55;;;;;;;21.52;61.26;98419.55;1375455;85;80716;-70
2022/07/01 01:53:21;;;;;;;23.38;9.35;;;;;;;21.44;61.42;98420.80;1379017;85;21028;-70
2022/07/01 01:55:22;;;;;;;18.50;8.65;;;;;;;21.39;61.47;98421.77;1376406;85;21036;-70
2022/07/01 01:57:23;;;;;;;9.70;8.80;;;;;;;21.34;61.57;98417.40;1376283;85;80837;-70
2022/07/01 01:59:24;;;;;;;15.53;9.43;;;;;;;21.29;61.66;98422.38;1378068;85;21056;-70
2022/07/01 02:01:26;;;;;;;11.93;9.53;;;;;;;21.23;61.78;98420.66;1377818;85;20992;-69
2022/07/01 02:03:27;;;;;;;20.17;9.35;;;;;;;21.20;61.82;98420.14;1365924;85;80900;-69
2022/07/01 02:05:28;;;;;;;14.68;9.10;;;;;;;21.15;61.93;98421.93;1364234;85;21041;-69
2022/07/01 02:07:29;;;;;;;9.65;8.65;;;;;;;21.07;62.00;98423.20;1364202;86;21103;-70
2022/07/01 02:09:30;;;;;;;20.95;9.48;;;;;;;21.01;62.11;98421.98;1362486;85;80483;-70
2022/07/01 02:11:31;;;;;;;11.63;8.95;;;;;;;20.96;62.21;98422.94;1365072;85;21009;-70
2022/07/01 02:13:32;;;;;;;15.78;9.18;;;;;;;20.93;62.33;98423.25;1364166;86;22210;-70
2022/07/01 02:15:33;;;;;;;13.45;9.48;;;;;;;20.89;62.37;98422.73;1364361;85;81645;-70
2022/07/01 02:17:34;;;;;;;18.52;10.58;;;;;;;20.85;62.45;98427.20;1364846;85;21626;-71
2022/07/01 02:19:35;;;;;;;20.25;10.55;;;;;;;20.80;62.57;98432.19;1364654;85;21013;-70
2022/07/01 02:21:36;;;;;;;17.95;10.53;;;;;;;20.74;62.71;98436.30;1363340;85;82272;-70
2022/07/01 02:23:38;;;;;;;18.05;9.95;;;;;;;20.70;62.83;98442.95;1364166;85;21037;-70
2022/07/01 02:25:39;;;;;;;11.28;9.10;;;;;;;20.66;62.84;98444.24;1363835;85;21775;-70
2022/07/01 02:27:40;;;;;;;16.82;9.85;;;;;;;20.62;62.95;98444.20;1363118;85;81798;-70
2022/07/01 02:29:43;;;;;;;15.43;10.72;;;;;;;20.58;63.02;98446.33;1364525;85;21007;-70
2022/07/01 02:31:44;;;;;;;22.10;10.48;;;;;;;20.57;63.15;98441.48;1363877;85;21020;-70
2022/07/01 02:33:45;;;;;;;36.50;10.72;;;;;;;20.57;63.20;98442.81;1363436;85;81978;-71
2022/07/01 02:35:48;;;;;;;27.13;10.20;;;;;;;20.60;63.25;98442.98;1364962;85;21126;-70
2022/07/01 02:37:49;;;;;;;11.18;9.98;;;;;;;20.61;63.26;98442.51;1365309;85;21075;-70
2022/07/01 02:39:50;;;;;;;24.35;9.93;;;;;;;20.62;63.32;98445.54;1361985;85;81670;-70
2022/07/01 02:44:11;;;;;;;21.65;10.70;;;;;;;20.59;63.38;98449.36;1364078;85;21540;-71
2022/07/01 02:46:12;;;;;;;24.18;10.70;;;;;;;20.57;63.42;98448.65;1363357;85;81603;-71
2022/07/01 02:48:13;;;;;;;15.98;9.93;;;;;;;20.56;63.47;98453.17;1365174;86;21120;-70
2022/07/01 02:50:14;;;;;;;16.10;9.95;;;;;;;20.53;63.52;98450.80;1364727;86;21016;-70
2022/07/01 02:52:16;;;;;;;20.15;10.60;;;;;;;20.47;63.58;98451.39;1363551;85;80814;-70
2022/07/01 02:54:17;;;;;;;10.93;9.78;;;;;;;20.40;63.63;98447.63;1365093;85;21045;-70
2022/07/01 02:56:18;;;;;;;20.77;9.70;;;;;;;20.35;63.70;98444.55;1363792;85;21513;-70
2022/07/01 02:58:20;;;;;;;11.83;9.33;;;;;;;20.34;63.79;98452.23;1362512;85;80577;-70
2022/07/01 03:00:22;;;;;;;19.48;9.90;;;;;;;20.33;63.84;98449.23;1365052;85;21017;-70
2022/07/01 03:02:23;;;;;;;13.95;10.55;;;;;;;20.32;63.94;98464.94;1362322;85;81444;-70
2022/07/01 03:04:25;;;;;;;14.18;10.15;;;;;;;20.30;63.99;98456.20;1342886;87;21580;-70
2022/07/01 03:06:26;;;;;;;13.58;10.35;;;;;;;20.31;64.03;98459.23;1364447;85;21001;-70
2022/07/01 03:08:27;;;;;;;17.67;10.55;;;;;;;20.30;64.12;98453.05;1362928;85;81927;-70
2022/07/01 03:10:28;;;;;;;21.93;10.85;;;;;;;20.30;64.15;98453.05;1364421;85;21017;-70
2022/07/01 03:12:34;;;;;;;25.90;10.53;;;;;;;20.29;64.21;98451.34;1364289;85;21088;-70
2022/07/01 03:14:32;;;;;;;23.30;10.00;;;;;;;20.29;64.27;98452.69;1362748;85;81031;-70
2022/07/01 03:16:33;;;;;;;17.25;9.98;;;;;;;20.30;64.33;98461.55;1364491;85;21072;-70
2022/07/01 03:18:34;;;;;;;23.12;10.28;;;;;;;20.31;64.33;98457.89;1364842;85;20993;-70
2022/07/01 03:20:35;;;;;;;22.73;10.28;;;;;;;20.32;64.39;98459.58;1363407;85;81024;-70
2022/07/01 03:22:37;;;;;;;19.75;10.18;;;;;;;20.33;64.39;98457.26;1364224;86;21484;-70
2022/07/01 03:24:38;;;;;;;26.90;10.40;;;;;;;20.34;64.44;98452.23;1363039;85;20996;-70
2022/07/01 03:26:39;;;;;;;24.75;10.70;;;;;;;20.34;64.46;98445.06;1363124;85;81817;-70
2022/07/01 03:28:40;;;;;;;23.65;9.93;;;;;;;20.35;64.52;98453.92;1363404;86;21026;-70
2022/07/01 03:30:41;;;;;;;14.40;9.73;;;;;;;20.36;64.54;98452.94;1361597;85;21103;-69
2022/07/01 03:32:42;;;;;;;17.98;10.20;;;;;;;20.38;64.58;98449.13;1345416;87;80902;-70
2022/07/01 03:34:45;;;;;;;16.42;10.70;;;;;;;20.40;64.61;98447.63;1364425;85;21541;-70
2022/07/01 03:36:46;;;;;;;20.72;10.15;;;;;;;20.43;64.65;98448.66;1363962;85;21013;-69
2022/07/01 03:38:48;;;;;;;23.95;10.48;;;;;;;20.44;64.66;98447.68;1363132;85;82374;-70
2022/07/01 03:40:48;;;;;;;27.05;10.72;;;;;;;20.43;64.78;98446.50;1362930;85;21024;-70
2022/07/01 03:42:50;;;;;;;33.30;11.83;;;;;;;20.44;64.76;98451.70;1364052;85;21147;-70
2022/07/01 03:44:50;;;;;;;38.63;11.15;;;;;;;20.49;64.78;98449.90;1364032;85;81877;-71
2022/07/01 03:46:51;;;;;;;24.15;10.68;;;;;;;20.51;64.84;98455.45;1364250;85;21104;-70
2022/07/01 03:48:53;;;;;;;33.20;11.18;;;;;;;20.55;64.84;98458.17;1364464;85;21005;-70
2022/07/01 03:50:54;;;;;;;16.40;10.08;;;;;;;20.61;64.84;98464.76;1363975;85;80829;-71
2022/07/01 03:55:16;;;;;;;27.20;10.10;;;;;;;20.69;64.85;98465.39;1363248;85;21176;-70
2022/07/01 03:57:17;;;;;;;24.23;10.45;;;;;;;20.73;64.86;98468.94;1363129;85;80941;-71
2022/07/01 03:59:18;;;;;;;17.48;9.95;;;;;;;20.78;64.85;98470.32;1364188;85;21111;-71
2022/07/01 04:01:20;;;;;;;24.92;11.15;;;;;;;20.84;64.91;98479.11;1364315;85;21366;-71
2022/07/01 04:03:21;;;;;;;23.87;10.30;;;;;;;20.89;64.81;98478.13;1363770;83;81737;-70
2022/07/01 04:05:23;;;;;;;19.92;10.60;;;;;;;20.94;64.81;98478.53;1365399;85;21666;-70
2022/07/01 04:07:25;;;;;;;15.30;10.43;;;;;;;20.98;64.80;98467.84;1365835;85;20989;-70
2022/07/01 04:09:28;;;;;;;23.75;10.70;;;;;;;21.01;64.86;98471.55;1364213;85;81789;-70
2022/07/01 04:11:29;;;;;;;15.60;10.90;;;;;;;21.04;64.86;98465.05;1365439;85;21072;-70
2022/07/01 04:13:30;;;;;;;26.77;11.35;;;;;;;21.08;64.86;98461.07;1365385;85;21072;-71
2022/07/01 04:15:31;;;;;;;22.02;9.93;;;;;;;21.14;64.92;98467.14;1364329;85;81917;-71
2022/07/01 04:17:32;;;;;;;20.10;10.58;;;;;;;21.19;64.90;98467.52;1365459;85;20997;-71
2022/07/01 04:19:34;;;;;;;20.70;10.78;;;;;;;21.26;64.98;98469.09;1366050;85;21069;-71
2022/07/01 04:23:56;;;;;;;12.90;10.75;;;;;;;21.33;65.03;98453.23;1365648;85;21067;-70
2022/07/01 04:25:57;;;;;;;19.60;10.20;;;;;;;21.48;64.98;98470.44;1365580;85;21008;-71
2022/07/01 04:27:58;;;;;;;12.73;10.00;;;;;;;21.53;64.93;98470.86;1363638;85;82029;-71
2022/07/01 04:30:01;;;;;;;23.47;10.63;;;;;;;21.59;64.87;98474.75;1364789;85;21347;-71
2022/07/01 04:32:02;;;;;;;33.88;11.33;;;;;;;21.63;64.91;98472.57;1365434;85;21092;-70
2022/07/01 04:34:05;;;;;;;27.05;10.40;;;;;;;21.69;64.93;98474.64;1365254;85;81055;-70
2022/07/01 04:36:05;;;;;;;33.10;10.25;;;;;;;;;;1365870;85;22183;-70
2022/07/01 04:38:08;;;;;;;23.42;10.25;;;;;;;21.81;64.93;98476.06;1366407;85;21040;-70
2022/07/01 04:40:09;;;;;;;24.55;9.70;;;;;;;21.88;64.96;98473.08;1363138;85;81830;-70
2022/07/01 04:42:10;;;;;;;15.45;9.53;;;;;;;21.94;64.94;98468.44;1366108;85;20993;-70
2022/07/01 04:44:12;;;;;;;36.30;10.65;;;;;;;22.04;64.92;98468.80;1366512;85;21098;-70
2022/07/01 04:46:13;;;;;;;33.45;10.78;;;;;;;22.11;64.89;98463.13;1365339;85;81678;-70
2022/07/01 04:48:14;;;;;;;43.58;11.30;;;;;;;22.19;64.86;98465.02;1366052;85;21040;-70
2022/07/01 04:50:15;;;;;;;19.75;10.40;;;;;;;22.25;64.82;98470.59;1367209;85;21017;-70
2022/07/01 04:52:16;;;;;;;21.48;10.78;;;;;;;22.33;64.82;98469.77;1365210;85;80862;-70
2022/07/01 04:54:18;;;;;;;18.25;11.20;;;;;;;22.43;64.78;98472.34;1366841;85;21049;-70
2022/07/01 04:56:19;;;;;;;19.95;10.20;;;;;;;22.52;64.71;98469.20;1365330;85;21052;-70
2022/07/01 04:58:20;;;;;;;26.25;10.82;;;;;;;22.59;64.70;98471.06;1364967;85;82119;-70
2022/07/01 05:00:21;;;;;;;18.12;10.82;;;;;;;22.67;64.65;98476.97;1366718;85;20977;-70
2022/07/01 05:02:22;;;;;;;16.00;11.25;;;;;;;22.74;64.57;98474.47;1366245;85;21009;-70
2022/07/01 05:04:23;;;;;;;23.87;10.35;;;;;;;22.81;64.52;98476.83;1364891;85;81544;-70
2022/07/01 05:06:24;;;;;;;18.32;10.32;;;;;;;22.88;64.47;98481.05;1365710;85;21044;-70
2022/07/01 05:08:26;;;;;;;36.25;10.78;;;;;;;22.93;64.49;98474.69;1363801;85;81144;-70
2022/07/01 05:10:28;;;;;;;19.17;10.78;;;;;;;22.98;64.41;98472.83;1363967;85;21089;-70
2022/07/01 05:12:29;;;;;;;21.05;10.55;;;;;;;23.07;64.33;98472.67;1364487;85;21029;-70
2022/07/01 05:14:30;;;;;;;26.75;11.18;;;;;;;23.16;64.23;98467.34;1363805;85;81983;-70
2022/07/01 05:16:31;;;;;;;22.02;10.38;;;;;;;23.24;64.12;98466.83;1364094;85;21029;-71
2022/07/01 05:23:11;;;;;;;16.35;10.68;;;;;;;23.46;63.82;98467.16;1364186;85;21056;-70
2022/07/01 05:25:12;;;;;;;25.82;10.70;;;;;;;23.55;63.71;98464.81;1364343;85;21107;-69
2022/07/01 05:27:13;;;;;;;39.10;11.68;;;;;;;23.61;63.53;98469.50;1363671;85;81827;-70
2022/07/01 05:29:15;;;;;;;77.92;12.63;;;;;;;23.67;63.55;98467.14;1363444;86;21076;-70
2022/07/01 05:31:16;;;;;;;86.55;13.08;;;;;;;23.72;63.47;98472.87;1363405;85;21013;-70
2022/07/01 05:33:21;;;;;;;73.47;13.68;;;;;;;23.79;63.49;98469.30;1363331;85;81746;-70
2022/07/01 05:35:20;;;;;;;68.92;13.32;;;;;;;23.87;63.43;98474.33;1364023;85;21563;-70
2022/07/01 05:37:21;;;;;;;74.35;12.68;;;;;;;23.94;63.35;98466.78;1362849;85;21096;-70
2022/07/01 05:39:22;;;;;;;112.08;15.05;;;;;;;24.01;63.23;98461.55;1363865;85;81100;-71
2022/07/01 05:41:23;;;;;;;65.78;14.03;;;;;;;24.08;63.12;98459.01;1362408;85;21169;-71
2022/07/01 05:43:24;;;;;;;56.77;12.68;;;;;;;24.14;63.01;98460.47;1364101;85;21048;-70
2022/07/01 05:45:27;;;;;;;25.00;10.53;;;;;;;24.21;63.01;98455.23;1363790;85;81752;-70
2022/07/01 05:47:28;;;;;;;33.38;10.98;;;;;;;24.25;62.79;98457.91;1362821;85;21112;-69
2022/07/01 05:49:29;;;;;;;35.45;11.10;;;;;;;24.31;62.80;98459.92;1364752;85;21013;-70
2022/07/01 05:51:31;;;;;;;39.38;10.95;;;;;;;24.34;62.73;98465.47;1363130;85;81896;-70
2022/07/01 05:53:32;;;;;;;41.13;10.82;;;;;;;24.40;62.80;98466.11;1363147;85;21068;-70
2022/07/01 05:55:33;;;;;;;35.38;11.05;;;;;;;24.47;62.83;98460.86;1364784;85;21109;-70
2022/07/01 05:57:34;;;;;;;26.05;10.75;;;;;;;24.55;62.54;98463.52;1362100;85;81948;-71
2022/07/01 05:59:36;;;;;;;35.90;11.45;;;;;;;24.58;62.57;98456.42;1364490;85;21092;-70
2022/07/01 06:01:37;;;;;;;23.30;10.63;;;;;;;24.67;62.58;98454.53;1364958;85;21060;-70
2022/07/01 06:03:38;;;;;;;27.32;10.18;;;;;;;24.74;62.35;98457.36;1363937;85;80990;-70
2022/07/01 06:05:40;;;;;;;30.97;11.73;;;;;;;24.81;62.33;98451.58;1364002;85;21009;-70
2022/07/01 06:07:42;;;;;;;22.58;10.20;;;;;;;24.91;62.20;98456.25;1363804;85;21520;-70
2022/07/01 06:09:43;;;;;;;28.27;10.32;;;;;;;24.98;62.15;98451.81;1363287;85;81419;-70
2022/07/01 06:11:44;;;;;;;25.97;10.23;;;;;;;25.06;62.06;98463.06;1364637;85;21071;-71
2022/07/01 06:13:45;;;;;;;52.20;10.20;;;;;;;25.11;61.61;98458.47;1364548;86;21061;-70
2022/07/01 06:15:46;;;;;;;32.67;10.40;;;;;;;25.16;61.57;98452.03;1363165;85;81800;-69
2022/07/01 06:17:49;;;;;;;26.70;9.88;;;;;;;25.18;61.64;98447.28;1363837;85;21584;-70
2022/07/01 06:19:50;;;;;;;35.78;10.08;;;;;;;25.31;61.45;98452.91;1364707;85;21060;-69
2022/07/01 06:21:51;;;;;;;43.73;10.15;;;;;;;25.40;61.32;98455.57;1362450;85;81066;-70
2022/07/01 06:23:52;;;;;;;31.05;10.13;;;;;;;25.48;61.19;98460.38;1364570;85;20962;-70
2022/07/01 06:25:53;;;;;;;41.50;9.68;;;;;;;25.58;61.15;98466.86;1362682;85;21092;-71
2022/07/01 06:27:54;;;;;;;63.28;9.85;;;;;;;25.65;60.87;98455.65;1362856;85;80719;-70
2022/07/01 06:29:55;;;;;;;32.20;10.30;;;;;;;25.75;60.58;98461.30;1363278;85;21077;-70
2022/07/01 06:31:56;;;;;;;43.05;10.05;;;;;;;25.80;60.51;98453.49;1362662;85;21037;-70
2022/07/01 06:33:57;;;;;;;39.80;10.85;;;;;;;25.89;60.57;98455.09;1360679;85;81873;-69
2022/07/01 06:35:58;;;;;;;39.25;10.30;;;;;;;25.96;60.15;98455.16;1363070;85;21655;-70
2022/07/01 06:37:59;;;;;;;31.87;9.78;;;;;;;26.04;60.04;98452.41;1363304;85;21060;-70
2022/07/01 06:40:02;;;;;;;39.80;9.75;;;;;;;26.11;59.85;98451.15;1360887;85;80901;-71
2022/07/01 06:42:03;;;;;;;52.45;9.85;;;;;;;26.15;59.83;98453.80;1363616;85;21187;-70
2022/07/01 06:44:04;;;;;;;48.90;9.70;;;;;;;26.22;59.71;98452.55;1362352;85;21878;-70
2022/07/01 06:46:05;;;;;;;47.17;9.73;;;;;;;26.27;59.50;98446.90;1362742;85;81982;-70
2022/07/01 06:48:06;;;;;;;37.58;9.70;;;;;;;26.37;59.36;98444.42;1363248;85;21076;-70
2022/07/01 06:50:08;;;;;;;28.70;10.15;;;;;;;26.46;59.17;98448.67;1361909;85;21037;-70
2022/07/01 06:52:09;;;;;;;44.45;9.18;;;;;;;26.55;59.20;98439.96;1362120;85;81766;-70
2022/07/01 06:54:10;;;;;;;51.30;9.98;;;;;;;26.63;59.10;98434.44;1364070;85;21068;-70
2022/07/01 06:56:12;;;;;;;63.25;11.00;;;;;;;26.72;58.81;98437.89;1363136;85;21020;-70
2022/07/01 06:58:13;;;;;;;24.77;9.30;;;;;;;26.83;58.74;98438.73;1361782;85;81751;-71
2022/07/01 07:00:15;;;;;;;45.92;9.45;;;;;;;26.92;58.50;98434.88;1363956;85;21277;-71
2022/07/01 07:02:16;;;;;;;42.70;9.08;;;;;;;26.98;58.36;98439.50;1363736;85;21055;-70
2022/07/01 07:04:17;;;;;;;30.52;9.45;;;;;;;27.06;57.98;98439.08;1363145;85;81805;-69
2022/07/01 07:06:18;;;;;;;30.30;9.00;;;;;;;27.18;58.22;98442.94;1364473;85;21048;-70
2022/07/01 07:08:19;;;;;;;37.90;8.68;;;;;;;27.25;58.00;98439.77;1364896;85;21057;-71
2022/07/01 07:10:21;;;;;;;29.90;8.03;;;;;;;27.32;57.83;98437.95;1364031;85;81395;-70
2022/07/01 07:12:22;;;;;;;24.55;8.95;;;;;;;27.41;57.10;98441.90;1365449;85;21552;-70
2022/07/01 07:14:23;;;;;;;27.95;8.40;;;;;;;27.52;57.14;98448.95;1363653;85;21033;-70
2022/07/01 07:16:26;;;;;;;37.15;8.78;;;;;;;27.57;57.02;98441.61;1364010;85;80657;-71
2022/07/01 07:18:27;;;;;;;30.35;8.78;;;;;;;27.66;57.08;98444.50;1364788;85;21041;-70
2022/07/01 07:20:29;;;;;;;34.23;8.83;;;;;;;27.79;56.91;98449.16;1364147;85;81781;-70
2022/07/01 07:22:31;;;;;;;16.20;8.20;;;;;;;27.91;56.50;98446.72;1363640;85;21100;-70
2022/07/01 07:24:32;;;;;;;25.77;8.38;;;;;;;28.01;56.20;98443.18;1365141;85;20993;-71
2022/07/01 07:26:32;;;;;;;22.05;7.85;;;;;;;28.12;56.04;98441.78;1363853;85;80979;-71
2022/07/01 07:28:33;;;;;;;41.33;8.10;;;;;;;28.20;56.05;98444.83;1363832;85;21435;-72
2022/07/01 07:30:34;;;;;;;42.55;8.78;;;;;;;28.25;55.88;98442.89;1365440;85;21647;-71
2022/07/01 07:32:35;;;;;;;16.95;7.90;;;;;;;28.37;56.10;98453.44;1364225;85;81836;-71
2022/07/01 07:34:37;;;;;;;13.60;7.62;;;;;;;28.49;55.74;98452.36;1365011;85;21600;-71
2022/07/01 07:36:38;;;;;;;17.65;8.48;;;;;;;28.55;55.03;98452.92;1364866;85;20973;-71
2022/07/01 07:38:39;;;;;;;20.48;7.80;;;;;;;28.59;54.55;98453.33;1364200;85;81708;-69
2022/07/01 07:40:41;;;;;;;14.45;7.92;;;;;;;28.69;54.71;98457.36;1364632;85;21021;-71
2022/07/01 07:42:47;;;;;;;17.35;8.40;;;;;;;28.78;54.78;98453.11;1363504;85;21045;-70
2022/07/01 07:44:47;;;;;;;21.07;7.45;;;;;;;28.86;54.47;98451.56;1363459;85;80899;-70
2022/07/01 07:46:48;;;;;;;29.37;9.35;;;;;;;28.88;54.34;98453.54;1365016;85;21219;-71
2022/07/01 07:48:49;;;;;;;20.02;7.55;;;;;;;28.84;54.36;98444.14;1366378;85;22192;-71
2022/07/01 07:50:50;;;;;;;20.97;7.12;;;;;;;28.92;54.37;98452.09;1363304;85;81444;-70
2022/07/01 07:52:51;;;;;;;20.52;8.20;;;;;;;29.04;54.23;98453.16;1364395;85;21603;-70
2022/07/01 07:54:53;;;;;;;25.72;6.97;;;;;;;29.17;53.84;98450.14;1365349;85;21064;-71
2022/07/01 07:56:54;;;;;;;21.30;8.20;;;;;;;29.29;53.78;98449.88;1364045;85;80855;-72
2022/07/01 07:58:55;;;;;;;16.25;8.08;;;;;;;29.41;53.05;98446.53;1364470;86;21088;-71
2022/07/01 08:00:56;;;;;;;30.80;8.63;;;;;;;29.46;52.89;98449.46;1364902;85;21519;-71
2022/07/01 08:02:57;;;;;;;38.53;8.13;;;;;;;29.47;53.11;98443.00;1363549;85;81728;-71
2022/07/01 08:04:58;;;;;;;20.62;7.08;;;;;;;29.48;53.08;98452.28;1344511;86;21124;-70
2022/07/01 08:06:59;;;;;;;18.82;7.00;;;;;;;29.61;52.78;98448.72;1377458;85;21055;-71
2022/07/01 08:09:00;;;;;;;26.37;7.25;;;;;;;29.79;52.48;98454.03;1375482;85;81677;-71
2022/07/01 08:11:01;;;;;;;30.52;7.42;;;;;;;29.87;51.95;98451.95;1375979;85;21611;-71
2022/07/01 08:13:04;;;;;;;30.45;8.03;;;;;;;29.95;51.79;98455.48;1376789;85;20993;-71
2022/07/01 08:15:06;;;;;;;22.10;7.05;;;;;;;30.01;51.94;98459.55;1375887;85;80795;-70
2022/07/01 08:17:07;;;;;;;14.20;7.20;;;;;;;30.10;51.57;98456.60;1348749;86;21060;-70
2022/07/01 08:19:08;;;;;;;24.63;7.40;;;;;;;30.15;51.63;98452.73;1375179;85;21623;-70
2022/07/01 08:21:09;;;;;;;25.08;7.58;;;;;;;30.26;51.41;98452.06;1375113;85;81646;-71
2022/07/01 08:23:10;;;;;;;20.72;7.33;;;;;;;30.28;51.30;98447.77;1377764;85;21095;-70
2022/07/01 08:25:12;;;;;;;31.62;7.37;;;;;;;30.38;51.27;98457.14;1376857;85;21040;-71
2022/07/01 08:27:12;;;;;;;27.10;7.92;;;;;;;30.43;50.25;98449.69;1376999;85;82120;-70
2022/07/01 08:29:13;;;;;;;30.62;7.80;;;;;;;30.48;49.43;98447.19;1376547;85;21080;-71
2022/07/01 08:31:15;;;;;;;33.92;8.00;;;;;;;30.54;49.36;98448.20;1377753;85;21000;-70
2022/07/01 08:33:16;;;;;;;24.10;6.37;;;;;;;30.61;49.28;98446.82;1376777;85;80894;-70
2022/07/01 08:35:17;;;;;;;39.58;7.67;;;;;;;30.71;48.61;98441.22;1349907;86;21095;-70
2022/07/01 08:37:18;;;;;;;31.73;8.33;;;;;;;30.79;48.19;98444.73;1337949;87;21060;-69
2022/07/01 08:39:19;;;;;;;23.85;7.12;;;;;;;30.93;47.73;98434.06;1375774;85;80726;-70
2022/07/01 08:41:20;;;;;;;50.65;8.65;;;;;;;31.00;47.55;98441.68;1376365;85;21044;-69
2022/07/01 08:43:21;;;;;;;21.05;7.60;;;;;;;31.14;48.07;98436.15;1377280;85;21040;-69
2022/07/01 08:45:23;;;;;;;30.97;7.55;;;;;;;31.28;47.19;98433.66;1376515;85;81394;-70
2022/07/01 08:47:24;;;;;;;13.38;6.90;;;;;;;31.44;46.98;98439.05;1377268;85;21091;-71
2022/07/01 08:49:25;;;;;;;18.62;6.50;;;;;;;31.54;47.51;98435.82;1377548;85;21979;-69
2022/07/01 08:51:26;;;;;;;32.65;8.13;;;;;;;31.62;47.68;98432.84;1376433;85;80923;-70
2022/07/01 08:53:27;;;;;;;20.92;7.15;;;;;;;31.70;47.75;98433.92;1377072;85;21126;-70
2022/07/01 08:55:28;;;;;;;14.20;6.85;;;;;;;31.81;47.79;98444.61;1378300;85;21028;-70
2022/07/01 08:57:30;;;;;;;15.70;6.58;;;;;;;31.91;46.75;98435.92;1376516;85;80873;-70
2022/07/01 08:59:32;;;;;;;12.55;6.35;;;;;;;32.03;46.17;98436.02;1376956;85;21745;-69
2022/07/01 09:01:34;;;;;;;15.63;6.67;;;;;;;32.17;46.63;98434.81;1377342;85;21228;-69
2022/07/01 09:03:35;;;;;;;27.48;6.92;;;;;;;32.28;46.36;98437.31;1352216;86;80738;-70
2022/07/01 09:05:37;;;;;;;27.80;6.85;;;;;;;32.42;46.47;98437.98;1376211;85;21052;-70
2022/07/01 09:07:38;;;;;;;28.62;6.85;;;;;;;32.58;46.38;98437.86;1377348;85;21035;-69
2022/07/01 09:09:40;;;;;;;19.92;6.60;;;;;;;32.66;45.70;98436.19;1377189;85;81589;-70
2022/07/01 09:11:53;;;;;;;9.95;6.37;;;;;;;32.69;45.97;98433.05;1376995;85;21500;-69
2022/07/01 09:14:09;;;;;;;15.60;6.87;;;;;;;32.75;45.55;98439.47;1376515;85;21056;-69
2022/07/01 09:16:13;;;;;;;26.00;6.80;;;;;;;32.84;45.35;98437.23;1375287;85;80638;-70
2022/07/01 09:18:16;;;;;;;45.25;7.95;;;;;;;32.85;45.00;98444.38;1377535;85;21016;-70
2022/07/01 09:20:26;;;;;;;47.80;7.60;;;;;;;32.87;45.10;98440.86;1377236;85;21020;-71
2022/07/01 09:22:29;;;;;;;37.78;7.40;;;;;;;32.95;44.73;98439.16;1376885;85;21087;-71
2022/07/01 09:24:42;;;;;;;31.68;7.30;;;;;;;33.04;44.87;98441.88;1377695;85;21052;-71
2022/07/01 09:26:51;;;;;;;13.72;7.37;;;;;;;33.11;43.74;98440.41;1375824;85;82505;-70
2022/07/01 09:28:55;;;;;;;23.20;7.72;;;;;;;33.24;44.39;98438.02;1377649;85;21104;-70
2022/07/01 09:30:57;;;;;;;24.50;7.10;;;;;;;33.37;44.64;98432.35;1377187;85;21146;-69
2022/07/01 09:33:14;;;;;;;30.80;7.28;;;;;;;33.40;43.14;98441.44;1376047;85;81637;-69
2022/07/01 09:35:19;;;;;;;17.00;7.37;;;;;;;33.36;43.70;98440.78;1350797;87;21273;-70
2022/07/01 09:37:22;;;;;;;11.03;7.37;;;;;;;33.42;43.09;98430.27;1349168;87;21033;-70